createdAt,value
2022-10-06T04:07:27.647Z,43.20
2022-10-06T05:46:01.437Z,44.00
2022-10-06T08:28:15.311Z,46.20
2022-10-06T08:35:53.304Z,46.40
2022-10-06T08:47:40.471Z,46.10
2022-10-06T08:58:57.378Z,46.20
2022-10-06T09:23:49.610Z,45.50
2022-10-06T11:03:09.651Z,42.90
2022-10-06T11:43:58.608Z,42.60
2022-10-06T11:46:44.060Z,42.60
2022-10-06T11:50:03.963Z,42.60
2022-10-06T11:53:13.787Z,42.50
2022-10-06T11:55:47.149Z,42.40
2022-10-06T11:58:41.935Z,42.40
2022-10-06T12:01:58.211Z,42.40
2022-10-06T12:05:59.718Z,42.40
2022-10-06T12:08:41.330Z,42.30
2022-10-06T12:11:53.237Z,42.20
2022-10-06T12:17:40.396Z,42.30
2022-10-06T12:20:51.438Z,42.20
2022-10-06T12:24:02.245Z,42.00
2022-10-06T12:26:56.615Z,41.80
2022-10-06T12:30:22.172Z,41.80
2022-10-06T12:37:21.654Z,41.80
2022-10-06T12:41:09.046Z,41.70
2022-10-06T12:47:17.054Z,41.70
2022-10-06T12:49:59.741Z,41.80
2022-10-06T13:01:23.897Z,41.20
2022-10-06T13:04:14.639Z,41.10
2022-10-06T13:07:19.572Z,41.10
2022-10-06T13:10:06.319Z,41.10
2022-10-06T13:12:44.204Z,40.90
2022-10-06T13:15:50.754Z,40.90
2022-10-06T13:18:38.776Z,41.00
2022-10-06T13:21:33.388Z,40.60
2022-10-06T13:24:20.829Z,40.60
2022-10-06T13:27:06.453Z,40.40
2022-10-06T13:29:41.963Z,40.60
2022-10-06T13:32:29.713Z,40.80
2022-10-06T13:35:09.453Z,40.60
2022-10-06T13:37:46.631Z,40.70
2022-10-06T13:40:47.772Z,40.70
2022-10-06T13:43:44.412Z,40.70
2022-10-06T13:46:22.963Z,40.80
2022-10-06T13:49:02.612Z,40.80
2022-10-06T13:51:48.682Z,40.70
2022-10-06T13:54:31.501Z,40.70
2022-10-06T13:57:08.066Z,40.80
2022-10-06T14:00:09.173Z,40.80
2022-10-06T14:02:54.725Z,41.40
2022-10-06T14:06:00.741Z,40.90
2022-10-06T14:09:18.770Z,40.90
2022-10-06T14:12:39.835Z,41.00
2022-10-06T14:15:57.899Z,41.10
2022-10-06T14:18:44.385Z,40.50
2022-10-06T14:21:50.266Z,40.60
2022-10-06T14:24:50.348Z,40.70
2022-10-06T14:28:02.468Z,41.00
2022-10-06T14:30:41.917Z,41.00
2022-10-06T14:33:33.001Z,40.80
2022-10-06T14:36:07.598Z,40.80
2022-10-06T14:39:34.067Z,40.80
2022-10-06T14:46:07.127Z,40.70
2022-10-06T14:53:58.194Z,40.60
2022-10-06T14:57:31.195Z,40.70
2022-10-06T15:00:55.220Z,40.80
2022-10-06T15:04:24.714Z,40.60
2022-10-06T15:07:22.965Z,40.40
2022-10-06T15:10:30.991Z,40.40
2022-10-06T15:13:46.371Z,40.40
2022-10-06T15:17:25.368Z,40.20
2022-10-06T15:20:46.430Z,40.10
2022-10-06T15:24:04.456Z,40.20
2022-10-06T15:27:25.082Z,40.40
2022-10-06T15:30:37.483Z,40.30
2022-10-06T15:34:28.562Z,40.30
2022-10-06T15:37:52.591Z,40.20
2022-10-06T15:41:28.624Z,40.10
2022-10-06T15:44:18.183Z,40.20
2022-10-06T15:50:46.706Z,40.30
2022-10-06T15:54:17.646Z,40.20
2022-10-06T15:57:37.730Z,40.50
2022-10-06T16:34:07.917Z,40.20
2022-10-06T16:45:20.201Z,40.30
2022-10-06T22:13:41.518Z,39.60
2022-10-06T23:59:24.432Z,39.80
